sensor_id;sensor_type;location;lat;lon;timestamp;P1;durP1;ratioP1;P2;durP2;ratioP2
22480;SDS011;11407;56.964;-2.212;2023-08-21T00:01:26;4.63;;;2.10;;
22480;SDS011;11407;56.964;-2.212;2023-08-21T00:03:52;8.40;;;1.97;;
22480;SDS011;11407;56.964;-2.212;2023-08-21T00:06:17;5.63;;;2.20;;
22480;SDS011;11407;56.964;-2.212;2023-08-21T00:08:42;3.63;;;2.00;;
22480;SDS011;11407;56.964;-2.212;2023-08-21T00:11:08;7.77;;;2.10;;
22480;SDS011;11407;56.964;-2.212;2023-08-21T00:13:33;5.50;;;1.93;;
22480;SDS011;11407;56.964;-2.212;2023-08-21T00:15:58;6.13;;;2.40;;
22480;SDS011;11407;56.964;-2.212;2023-08-21T00:18:23;5.13;;;2.00;;
22480;SDS011;11407;56.964;-2.212;2023-08-21T00:20:49;7.17;;;2.37;;
22480;SDS011;11407;56.964;-2.212;2023-08-21T00:23:14;6.87;;;2.03;;
22480;SDS011;11407;56.964;-2.212;2023-08-21T00:25:39;4.73;;;1.97;;
22480;SDS011;11407;56.964;-2.212;2023-08-21T00:28:05;8.43;;;2.17;;
22480;SDS011;11407;56.964;-2.212;2023-08-21T00:30:30;6.77;;;2.10;;
22480;SDS011;11407;56.964;-2.212;2023-08-21T00:32:55;8.13;;;2.17;;
22480;SDS011;11407;56.964;-2.212;2023-08-21T00:35:20;6.10;;;2.00;;
22480;SDS011;11407;56.964;-2.212;2023-08-21T00:37:46;5.33;;;2.10;;
22480;SDS011;11407;56.964;-2.212;2023-08-21T00:40:11;5.97;;;2.40;;
22480;SDS011;11407;56.964;-2.212;2023-08-21T00:42:37;10.90;;;2.30;;
22480;SDS011;11407;56.964;-2.212;2023-08-21T00:45:02;7.17;;;2.40;;
22480;SDS011;11407;56.964;-2.212;2023-08-21T00:47:28;4.27;;;2.03;;
22480;SDS011;11407;56.964;-2.212;2023-08-21T00:49:53;4.53;;;2.20;;
22480;SDS011;11407;56.964;-2.212;2023-08-21T00:52:19;5.17;;;2.30;;
22480;SDS011;11407;56.964;-2.212;2023-08-21T00:54:44;8.73;;;2.57;;
22480;SDS011;11407;56.964;-2.212;2023-08-21T00:57:10;6.17;;;2.40;;
22480;SDS011;11407;56.964;-2.212;2023-08-21T00:59:35;7.60;;;3.00;;
22480;SDS011;11407;56.964;-2.212;2023-08-21T01:02:01;6.17;;;2.83;;
22480;SDS011;11407;56.964;-2.212;2023-08-21T01:04:26;8.13;;;2.70;;
22480;SDS011;11407;56.964;-2.212;2023-08-21T01:06:51;4.93;;;2.63;;
22480;SDS011;11407;56.964;-2.212;2023-08-21T01:14:31;6.67;;;2.60;;
22480;SDS011;11407;56.964;-2.212;2023-08-21T01:16:59;5.83;;;2.53;;
22480;SDS011;11407;56.964;-2.212;2023-08-21T01:19:30;4.90;;;2.50;;
22480;SDS011;11407;56.964;-2.212;2023-08-21T01:21:56;5.30;;;2.27;;
22480;SDS011;11407;56.964;-2.212;2023-08-21T01:24:22;5.13;;;2.17;;
22480;SDS011;11407;56.964;-2.212;2023-08-21T01:26:47;5.60;;;2.23;;
22480;SDS011;11407;56.964;-2.212;2023-08-21T01:29:13;6.13;;;2.60;;
22480;SDS011;11407;56.964;-2.212;2023-08-21T01:31:38;5.67;;;2.63;;
22480;SDS011;11407;56.964;-2.212;2023-08-21T01:34:06;5.17;;;2.47;;
22480;SDS011;11407;56.964;-2.212;2023-08-21T01:36:31;8.07;;;2.40;;
22480;SDS011;11407;56.964;-2.212;2023-08-21T01:38:57;5.10;;;2.13;;
22480;SDS011;11407;56.964;-2.212;2023-08-21T01:41:25;4.97;;;2.40;;
22480;SDS011;11407;56.964;-2.212;2023-08-21T01:43:50;5.70;;;2.40;;
22480;SDS011;11407;56.964;-2.212;2023-08-21T01:46:16;4.53;;;2.63;;
22480;SDS011;11407;56.964;-2.212;2023-08-21T01:48:41;5.17;;;2.30;;
22480;SDS011;11407;56.964;-2.212;2023-08-21T01:51:06;5.53;;;2.00;;
22480;SDS011;11407;56.964;-2.212;2023-08-21T01:53:31;5.37;;;1.93;;
22480;SDS011;11407;56.964;-2.212;2023-08-21T01:55:57;5.97;;;2.23;;
22480;SDS011;11407;56.964;-2.212;2023-08-21T01:58:22;6.50;;;2.40;;
22480;SDS011;11407;56.964;-2.212;2023-08-21T02:00:47;5.80;;;2.40;;
22480;SDS011;11407;56.964;-2.212;2023-08-21T02:03:13;6.97;;;2.63;;
22480;SDS011;11407;56.964;-2.212;2023-08-21T02:05:38;5.47;;;2.17;;
22480;SDS011;11407;56.964;-2.212;2023-08-21T02:08:05;7.63;;;2.17;;
22480;SDS011;11407;56.964;-2.212;2023-08-21T02:10:30;8.80;;;2.60;;
22480;SDS011;11407;56.964;-2.212;2023-08-21T02:12:56;8.47;;;2.03;;
22480;SDS011;11407;56.964;-2.212;2023-08-21T02:15:21;5.07;;;1.93;;
22480;SDS011;11407;56.964;-2.212;2023-08-21T02:17:47;6.17;;;2.50;;
22480;SDS011;11407;56.964;-2.212;2023-08-21T02:20:12;5.97;;;2.10;;
22480;SDS011;11407;56.964;-2.212;2023-08-21T02:22:37;6.63;;;2.00;;
22480;SDS011;11407;56.964;-2.212;2023-08-21T02:25:03;10.20;;;2.67;;
22480;SDS011;11407;56.964;-2.212;2023-08-21T02:27:28;6.20;;;2.17;;
22480;SDS011;11407;56.964;-2.212;2023-08-21T02:29:53;9.83;;;2.83;;
22480;SDS011;11407;56.964;-2.212;2023-08-21T02:32:18;8.30;;;2.40;;
22480;SDS011;11407;56.964;-2.212;2023-08-21T02:34:44;7.37;;;2.30;;
22480;SDS011;11407;56.964;-2.212;2023-08-21T02:37:09;12.00;;;2.70;;
22480;SDS011;11407;56.964;-2.212;2023-08-21T02:39:34;5.60;;;2.47;;
22480;SDS011;11407;56.964;-2.212;2023-08-21T02:41:59;4.30;;;2.23;;
22480;SDS011;11407;56.964;-2.212;2023-08-21T02:44:25;6.77;;;2.37;;
22480;SDS011;11407;56.964;-2.212;2023-08-21T02:46:50;4.63;;;2.50;;
22480;SDS011;11407;56.964;-2.212;2023-08-21T02:49:15;4.13;;;2.30;;
22480;SDS011;11407;56.964;-2.212;2023-08-21T02:51:40;6.37;;;2.37;;
22480;SDS011;11407;56.964;-2.212;2023-08-21T02:54:05;5.23;;;2.30;;
22480;SDS011;11407;56.964;-2.212;2023-08-21T02:56:31;8.00;;;2.33;;
22480;SDS011;11407;56.964;-2.212;2023-08-21T02:58:56;8.53;;;2.60;;
22480;SDS011;11407;56.964;-2.212;2023-08-21T03:01:21;5.57;;;2.20;;
22480;SDS011;11407;56.964;-2.212;2023-08-21T03:03:46;7.10;;;2.30;;
22480;SDS011;11407;56.964;-2.212;2023-08-21T03:06:12;7.27;;;2.33;;
22480;SDS011;11407;56.964;-2.212;2023-08-21T03:08:37;7.27;;;2.37;;
22480;SDS011;11407;56.964;-2.212;2023-08-21T03:11:02;7.23;;;2.47;;
22480;SDS011;11407;56.964;-2.212;2023-08-21T03:13:27;7.47;;;2.40;;
22480;SDS011;11407;56.964;-2.212;2023-08-21T03:15:53;8.27;;;2.30;;
22480;SDS011;11407;56.964;-2.212;2023-08-21T03:18:18;7.50;;;2.13;;
22480;SDS011;11407;56.964;-2.212;2023-08-21T03:20:44;7.43;;;2.30;;
22480;SDS011;11407;56.964;-2.212;2023-08-21T03:23:09;6.70;;;2.40;;
22480;SDS011;11407;56.964;-2.212;2023-08-21T03:25:34;6.40;;;2.43;;
22480;SDS011;11407;56.964;-2.212;2023-08-21T03:28:00;6.27;;;2.40;;
22480;SDS011;11407;56.964;-2.212;2023-08-21T03:30:25;7.53;;;2.87;;
22480;SDS011;11407;56.964;-2.212;2023-08-21T03:32:50;7.77;;;2.50;;
22480;SDS011;11407;56.964;-2.212;2023-08-21T03:35:15;10.30;;;2.50;;
22480;SDS011;11407;56.964;-2.212;2023-08-21T03:37:41;6.63;;;2.50;;
22480;SDS011;11407;56.964;-2.212;2023-08-21T03:40:06;6.50;;;2.47;;
22480;SDS011;11407;56.964;-2.212;2023-08-21T03:42:31;5.73;;;2.40;;
22480;SDS011;11407;56.964;-2.212;2023-08-21T03:44:57;6.13;;;2.70;;
22480;SDS011;11407;56.964;-2.212;2023-08-21T03:47:22;8.53;;;2.50;;
22480;SDS011;11407;56.964;-2.212;2023-08-21T03:49:47;6.13;;;2.57;;
22480;SDS011;11407;56.964;-2.212;2023-08-21T03:52:13;9.60;;;2.63;;
22480;SDS011;11407;56.964;-2.212;2023-08-21T03:54:38;6.50;;;2.10;;
22480;SDS011;11407;56.964;-2.212;2023-08-21T03:57:04;6.63;;;2.50;;
22480;SDS011;11407;56.964;-2.212;2023-08-21T03:59:29;7.27;;;2.30;;
22480;SDS011;11407;56.964;-2.212;2023-08-21T04:01:55;6.80;;;2.33;;
22480;SDS011;11407;56.964;-2.212;2023-08-21T04:04:20;6.70;;;2.40;;
22480;SDS011;11407;56.964;-2.212;2023-08-21T04:06:45;8.87;;;2.70;;
22480;SDS011;11407;56.964;-2.212;2023-08-21T04:09:10;6.77;;;2.43;;
22480;SDS011;11407;56.964;-2.212;2023-08-21T04:11:36;7.77;;;2.50;;
22480;SDS011;11407;56.964;-2.212;2023-08-21T04:14:01;4.60;;;2.20;;
22480;SDS011;11407;56.964;-2.212;2023-08-21T04:16:27;3.83;;;2.30;;
22480;SDS011;11407;56.964;-2.212;2023-08-21T04:18:53;5.40;;;2.57;;
22480;SDS011;11407;56.964;-2.212;2023-08-21T04:21:18;8.97;;;3.00;;
22480;SDS011;11407;56.964;-2.212;2023-08-21T04:23:44;7.70;;;2.77;;
22480;SDS011;11407;56.964;-2.212;2023-08-21T04:26:09;8.20;;;2.70;;
22480;SDS011;11407;56.964;-2.212;2023-08-21T04:28:35;6.87;;;2.70;;
22480;SDS011;11407;56.964;-2.212;2023-08-21T04:31:00;6.60;;;2.60;;
22480;SDS011;11407;56.964;-2.212;2023-08-21T04:33:29;3.93;;;2.30;;
22480;SDS011;11407;56.964;-2.212;2023-08-21T04:35:54;7.13;;;2.90;;
22480;SDS011;11407;56.964;-2.212;2023-08-21T04:38:19;7.70;;;2.63;;
22480;SDS011;11407;56.964;-2.212;2023-08-21T04:40:45;7.33;;;2.50;;
22480;SDS011;11407;56.964;-2.212;2023-08-21T04:43:10;7.97;;;2.50;;
22480;SDS011;11407;56.964;-2.212;2023-08-21T04:45:35;8.87;;;2.63;;
22480;SDS011;11407;56.964;-2.212;2023-08-21T04:48:03;9.03;;;2.80;;
22480;SDS011;11407;56.964;-2.212;2023-08-21T04:50:28;5.70;;;2.53;;
22480;SDS011;11407;56.964;-2.212;2023-08-21T04:52:53;7.70;;;2.63;;
22480;SDS011;11407;56.964;-2.212;2023-08-21T04:55:18;5.87;;;2.40;;
22480;SDS011;11407;56.964;-2.212;2023-08-21T04:57:44;5.57;;;2.33;;
22480;SDS011;11407;56.964;-2.212;2023-08-21T05:00:09;5.57;;;2.50;;
22480;SDS011;11407;56.964;-2.212;2023-08-21T05:02:34;9.50;;;2.43;;
22480;SDS011;11407;56.964;-2.212;2023-08-21T05:05:00;6.43;;;2.50;;
22480;SDS011;11407;56.964;-2.212;2023-08-21T05:07:25;5.40;;;2.87;;
22480;SDS011;11407;56.964;-2.212;2023-08-21T05:09:52;7.40;;;2.60;;
22480;SDS011;11407;56.964;-2.212;2023-08-21T05:12:17;5.80;;;2.30;;
22480;SDS011;11407;56.964;-2.212;2023-08-21T05:14:42;8.90;;;3.00;;
22480;SDS011;11407;56.964;-2.212;2023-08-21T05:17:08;4.83;;;2.63;;
22480;SDS011;11407;56.964;-2.212;2023-08-21T05:19:33;4.97;;;2.27;;
22480;SDS011;11407;56.964;-2.212;2023-08-21T05:21:58;5.93;;;2.67;;
22480;SDS011;11407;56.964;-2.212;2023-08-21T05:24:23;7.83;;;3.00;;
22480;SDS011;11407;56.964;-2.212;2023-08-21T05:26:49;4.67;;;2.50;;
22480;SDS011;11407;56.964;-2.212;2023-08-21T05:29:14;10.87;;;3.00;;
22480;SDS011;11407;56.964;-2.212;2023-08-21T05:31:39;10.53;;;3.50;;
22480;SDS011;11407;56.964;-2.212;2023-08-21T05:34:04;8.90;;;2.80;;
22480;SDS011;11407;56.964;-2.212;2023-08-21T05:36:30;9.07;;;3.00;;
22480;SDS011;11407;56.964;-2.212;2023-08-21T05:38:56;9.23;;;2.90;;
22480;SDS011;11407;56.964;-2.212;2023-08-21T05:41:21;7.37;;;3.10;;
22480;SDS011;11407;56.964;-2.212;2023-08-21T05:43:46;7.27;;;2.70;;
22480;SDS011;11407;56.964;-2.212;2023-08-21T05:46:12;9.07;;;3.00;;
22480;SDS011;11407;56.964;-2.212;2023-08-21T05:48:38;7.70;;;3.23;;
22480;SDS011;11407;56.964;-2.212;2023-08-21T05:51:03;10.83;;;2.90;;
22480;SDS011;11407;56.964;-2.212;2023-08-21T05:53:29;9.27;;;3.00;;
22480;SDS011;11407;56.964;-2.212;2023-08-21T05:55:54;9.70;;;3.50;;
22480;SDS011;11407;56.964;-2.212;2023-08-21T05:58:20;7.83;;;2.87;;
22480;SDS011;11407;56.964;-2.212;2023-08-21T06:00:46;7.53;;;2.73;;
22480;SDS011;11407;56.964;-2.212;2023-08-21T06:03:11;10.87;;;3.53;;
22480;SDS011;11407;56.964;-2.212;2023-08-21T06:05:36;10.63;;;3.13;;
22480;SDS011;11407;56.964;-2.212;2023-08-21T06:08:01;12.07;;;2.67;;
22480;SDS011;11407;56.964;-2.212;2023-08-21T06:10:27;14.10;;;2.70;;
22480;SDS011;11407;56.964;-2.212;2023-08-21T06:12:52;10.60;;;2.80;;
22480;SDS011;11407;56.964;-2.212;2023-08-21T06:15:17;7.97;;;2.37;;
22480;SDS011;11407;56.964;-2.212;2023-08-21T06:17:43;7.90;;;2.57;;
22480;SDS011;11407;56.964;-2.212;2023-08-21T06:20:08;7.03;;;2.43;;
22480;SDS011;11407;56.964;-2.212;2023-08-21T06:22:38;9.53;;;2.50;;
22480;SDS011;11407;56.964;-2.212;2023-08-21T06:25:04;8.33;;;2.33;;
22480;SDS011;11407;56.964;-2.212;2023-08-21T06:27:29;6.70;;;2.43;;
22480;SDS011;11407;56.964;-2.212;2023-08-21T06:29:55;7.67;;;2.53;;
22480;SDS011;11407;56.964;-2.212;2023-08-21T06:32:20;8.33;;;2.57;;
22480;SDS011;11407;56.964;-2.212;2023-08-21T06:34:45;7.40;;;2.40;;
22480;SDS011;11407;56.964;-2.212;2023-08-21T06:37:10;10.97;;;2.80;;
22480;SDS011;11407;56.964;-2.212;2023-08-21T06:39:38;7.63;;;2.40;;
22480;SDS011;11407;56.964;-2.212;2023-08-21T06:42:03;10.00;;;2.40;;
22480;SDS011;11407;56.964;-2.212;2023-08-21T06:44:28;10.20;;;2.60;;
22480;SDS011;11407;56.964;-2.212;2023-08-21T06:46:54;10.80;;;2.67;;
22480;SDS011;11407;56.964;-2.212;2023-08-21T06:49:19;6.60;;;2.13;;
22480;SDS011;11407;56.964;-2.212;2023-08-21T06:51:44;9.40;;;2.50;;
22480;SDS011;11407;56.964;-2.212;2023-08-21T06:54:09;11.50;;;2.60;;
22480;SDS011;11407;56.964;-2.212;2023-08-21T06:56:35;11.43;;;2.83;;
22480;SDS011;11407;56.964;-2.212;2023-08-21T06:59:00;7.90;;;2.50;;
22480;SDS011;11407;56.964;-2.212;2023-08-21T07:01:25;9.37;;;3.17;;
22480;SDS011;11407;56.964;-2.212;2023-08-21T07:03:51;8.57;;;2.20;;
22480;SDS011;11407;56.964;-2.212;2023-08-21T07:06:16;9.83;;;2.07;;
22480;SDS011;11407;56.964;-2.212;2023-08-21T07:08:41;12.70;;;2.60;;
22480;SDS011;11407;56.964;-2.212;2023-08-21T07:11:07;8.27;;;2.40;;
22480;SDS011;11407;56.964;-2.212;2023-08-21T07:13:37;9.43;;;1.90;;
22480;SDS011;11407;56.964;-2.212;2023-08-21T07:16:02;9.33;;;2.13;;
22480;SDS011;11407;56.964;-2.212;2023-08-21T07:18:31;5.53;;;2.03;;
22480;SDS011;11407;56.964;-2.212;2023-08-21T07:20:56;5.33;;;1.73;;
22480;SDS011;11407;56.964;-2.212;2023-08-21T07:23:21;11.73;;;2.20;;
22480;SDS011;11407;56.964;-2.212;2023-08-21T07:25:46;8.37;;;2.47;;
22480;SDS011;11407;56.964;-2.212;2023-08-21T07:28:12;8.70;;;2.47;;
22480;SDS011;11407;56.964;-2.212;2023-08-21T07:30:37;12.37;;;7.17;;
22480;SDS011;11407;56.964;-2.212;2023-08-21T07:33:03;7.23;;;3.10;;
22480;SDS011;11407;56.964;-2.212;2023-08-21T07:35:29;8.93;;;2.80;;
22480;SDS011;11407;56.964;-2.212;2023-08-21T07:37:54;9.67;;;2.30;;
22480;SDS011;11407;56.964;-2.212;2023-08-21T07:40:19;10.63;;;2.33;;
22480;SDS011;11407;56.964;-2.212;2023-08-21T07:42:45;9.93;;;2.60;;
22480;SDS011;11407;56.964;-2.212;2023-08-21T07:45:10;8.07;;;2.07;;
22480;SDS011;11407;56.964;-2.212;2023-08-21T07:47:36;7.90;;;2.17;;
22480;SDS011;11407;56.964;-2.212;2023-08-21T07:50:01;7.67;;;2.17;;
22480;SDS011;11407;56.964;-2.212;2023-08-21T07:52:26;6.57;;;1.93;;
22480;SDS011;11407;56.964;-2.212;2023-08-21T07:54:52;8.13;;;2.10;;
22480;SDS011;11407;56.964;-2.212;2023-08-21T07:57:18;7.13;;;2.27;;
22480;SDS011;11407;56.964;-2.212;2023-08-21T07:59:43;6.23;;;1.90;;
22480;SDS011;11407;56.964;-2.212;2023-08-21T08:02:08;7.10;;;2.10;;
22480;SDS011;11407;56.964;-2.212;2023-08-21T08:04:35;6.73;;;2.07;;
22480;SDS011;11407;56.964;-2.212;2023-08-21T08:07:00;5.27;;;1.67;;
22480;SDS011;11407;56.964;-2.212;2023-08-21T08:09:25;10.03;;;2.00;;
22480;SDS011;11407;56.964;-2.212;2023-08-21T08:11:50;7.93;;;2.00;;
22480;SDS011;11407;56.964;-2.212;2023-08-21T08:14:16;5.63;;;1.80;;
22480;SDS011;11407;56.964;-2.212;2023-08-21T08:16:41;7.83;;;1.87;;
22480;SDS011;11407;56.964;-2.212;2023-08-21T08:19:07;8.57;;;2.07;;
22480;SDS011;11407;56.964;-2.212;2023-08-21T08:21:32;5.67;;;1.90;;
22480;SDS011;11407;56.964;-2.212;2023-08-21T08:23:58;9.40;;;2.03;;
22480;SDS011;11407;56.964;-2.212;2023-08-21T08:26:23;8.63;;;1.60;;
22480;SDS011;11407;56.964;-2.212;2023-08-21T08:28:48;6.10;;;1.93;;
22480;SDS011;11407;56.964;-2.212;2023-08-21T08:31:14;7.07;;;1.80;;
22480;SDS011;11407;56.964;-2.212;2023-08-21T08:33:39;8.60;;;2.10;;
22480;SDS011;11407;56.964;-2.212;2023-08-21T08:36:05;7.37;;;1.90;;
22480;SDS011;11407;56.964;-2.212;2023-08-21T08:38:30;6.43;;;2.13;;
22480;SDS011;11407;56.964;-2.212;2023-08-21T08:40:55;7.17;;;2.00;;
22480;SDS011;11407;56.964;-2.212;2023-08-21T08:43:21;5.90;;;1.63;;
22480;SDS011;11407;56.964;-2.212;2023-08-21T08:45:47;4.57;;;1.90;;
22480;SDS011;11407;56.964;-2.212;2023-08-21T08:48:14;7.60;;;1.87;;
22480;SDS011;11407;56.964;-2.212;2023-08-21T08:50:39;9.00;;;1.97;;
22480;SDS011;11407;56.964;-2.212;2023-08-21T08:53:05;7.83;;;1.90;;
22480;SDS011;11407;56.964;-2.212;2023-08-21T08:55:31;5.17;;;1.60;;
22480;SDS011;11407;56.964;-2.212;2023-08-21T08:57:56;4.77;;;1.50;;
22480;SDS011;11407;56.964;-2.212;2023-08-21T09:00:22;6.07;;;1.90;;
22480;SDS011;11407;56.964;-2.212;2023-08-21T09:02:47;4.63;;;1.60;;
22480;SDS011;11407;56.964;-2.212;2023-08-21T09:05:12;7.37;;;1.70;;
22480;SDS011;11407;56.964;-2.212;2023-08-21T09:07:41;7.20;;;1.90;;
22480;SDS011;11407;56.964;-2.212;2023-08-21T09:10:14;4.87;;;1.57;;
22480;SDS011;11407;56.964;-2.212;2023-08-21T09:12:40;4.87;;;1.53;;
22480;SDS011;11407;56.964;-2.212;2023-08-21T09:15:06;3.13;;;1.27;;
22480;SDS011;11407;56.964;-2.212;2023-08-21T09:17:32;5.17;;;1.60;;
22480;SDS011;11407;56.964;-2.212;2023-08-21T09:20:03;5.83;;;1.70;;
22480;SDS011;11407;56.964;-2.212;2023-08-21T09:22:28;5.97;;;1.73;;
22480;SDS011;11407;56.964;-2.212;2023-08-21T09:25:06;6.53;;;1.80;;
22480;SDS011;11407;56.964;-2.212;2023-08-21T09:27:32;4.73;;;1.50;;
22480;SDS011;11407;56.964;-2.212;2023-08-21T09:29:58;7.40;;;1.70;;
22480;SDS011;11407;56.964;-2.212;2023-08-21T09:32:24;8.20;;;1.83;;
22480;SDS011;11407;56.964;-2.212;2023-08-21T09:34:49;9.47;;;2.10;;
22480;SDS011;11407;56.964;-2.212;2023-08-21T09:37:16;9.87;;;3.13;;
22480;SDS011;11407;56.964;-2.212;2023-08-21T09:39:49;6.60;;;2.00;;
22480;SDS011;11407;56.964;-2.212;2023-08-21T09:42:14;6.03;;;2.00;;
22480;SDS011;11407;56.964;-2.212;2023-08-21T09:44:40;7.37;;;1.80;;
22480;SDS011;11407;56.964;-2.212;2023-08-21T09:47:09;5.27;;;1.60;;
22480;SDS011;11407;56.964;-2.212;2023-08-21T09:49:34;4.43;;;1.53;;
22480;SDS011;11407;56.964;-2.212;2023-08-21T09:51:59;4.70;;;1.30;;
22480;SDS011;11407;56.964;-2.212;2023-08-21T09:54:25;6.63;;;1.50;;
22480;SDS011;11407;56.964;-2.212;2023-08-21T09:56:50;4.37;;;1.40;;
22480;SDS011;11407;56.964;-2.212;2023-08-21T09:59:16;6.17;;;1.87;;
22480;SDS011;11407;56.964;-2.212;2023-08-21T10:01:42;6.10;;;1.97;;
22480;SDS011;11407;56.964;-2.212;2023-08-21T10:04:07;10.47;;;2.20;;
22480;SDS011;11407;56.964;-2.212;2023-08-21T10:06:34;7.20;;;2.00;;
22480;SDS011;11407;56.964;-2.212;2023-08-21T10:08:59;6.47;;;1.70;;
22480;SDS011;11407;56.964;-2.212;2023-08-21T10:11:25;6.77;;;2.03;;
22480;SDS011;11407;56.964;-2.212;2023-08-21T10:13:50;7.33;;;2.07;;
22480;SDS011;11407;56.964;-2.212;2023-08-21T10:16:17;7.90;;;2.00;;
22480;SDS011;11407;56.964;-2.212;2023-08-21T10:18:45;6.03;;;2.07;;
22480;SDS011;11407;56.964;-2.212;2023-08-21T10:23:36;6.90;;;2.20;;
22480;SDS011;11407;56.964;-2.212;2023-08-21T10:26:03;9.53;;;2.10;;
22480;SDS011;11407;56.964;-2.212;2023-08-21T10:28:41;9.90;;;1.90;;
22480;SDS011;11407;56.964;-2.212;2023-08-21T10:33:50;7.57;;;1.83;;
22480;SDS011;11407;56.964;-2.212;2023-08-21T10:36:32;7.70;;;1.83;;
22480;SDS011;11407;56.964;-2.212;2023-08-21T10:39:01;8.97;;;2.10;;
22480;SDS011;11407;56.964;-2.212;2023-08-21T10:41:26;7.10;;;1.90;;
22480;SDS011;11407;56.964;-2.212;2023-08-21T10:43:52;7.00;;;1.60;;
22480;SDS011;11407;56.964;-2.212;2023-08-21T10:46:17;7.43;;;1.97;;
22480;SDS011;11407;56.964;-2.212;2023-08-21T10:48:42;10.00;;;2.27;;
22480;SDS011;11407;56.964;-2.212;2023-08-21T10:51:07;7.67;;;1.87;;
22480;SDS011;11407;56.964;-2.212;2023-08-21T10:53:34;12.07;;;2.13;;
22480;SDS011;11407;56.964;-2.212;2023-08-21T10:56:03;5.50;;;1.67;;
22480;SDS011;11407;56.964;-2.212;2023-08-21T10:58:28;6.07;;;1.87;;
22480;SDS011;11407;56.964;-2.212;2023-08-21T11:00:57;7.33;;;2.00;;
22480;SDS011;11407;56.964;-2.212;2023-08-21T11:03:23;7.60;;;2.10;;
22480;SDS011;11407;56.964;-2.212;2023-08-21T11:06:01;8.57;;;2.03;;
22480;SDS011;11407;56.964;-2.212;2023-08-21T11:08:27;8.73;;;1.80;;
22480;SDS011;11407;56.964;-2.212;2023-08-21T11:10:53;5.97;;;1.90;;
22480;SDS011;11407;56.964;-2.212;2023-08-21T11:13:18;6.57;;;2.20;;
22480;SDS011;11407;56.964;-2.212;2023-08-21T11:15:44;5.40;;;1.60;;
22480;SDS011;11407;56.964;-2.212;2023-08-21T11:18:10;9.80;;;2.40;;
22480;SDS011;11407;56.964;-2.212;2023-08-21T11:20:35;8.23;;;2.00;;
22480;SDS011;11407;56.964;-2.212;2023-08-21T11:23:05;7.53;;;2.30;;
22480;SDS011;11407;56.964;-2.212;2023-08-21T11:25:31;8.10;;;2.17;;
22480;SDS011;11407;56.964;-2.212;2023-08-21T11:27:58;10.23;;;2.30;;
22480;SDS011;11407;56.964;-2.212;2023-08-21T11:30:23;22.53;;;4.70;;
22480;SDS011;11407;56.964;-2.212;2023-08-21T11:32:49;9.30;;;2.43;;
22480;SDS011;11407;56.964;-2.212;2023-08-21T11:35:15;10.20;;;2.30;;
22480;SDS011;11407;56.964;-2.212;2023-08-21T11:37:44;10.93;;;2.13;;
22480;SDS011;11407;56.964;-2.212;2023-08-21T11:40:10;8.70;;;2.17;;
22480;SDS011;11407;56.964;-2.212;2023-08-21T11:42:36;7.37;;;2.50;;
22480;SDS011;11407;56.964;-2.212;2023-08-21T11:45:01;18.10;;;3.77;;
22480;SDS011;11407;56.964;-2.212;2023-08-21T11:47:34;11.63;;;2.83;;
22480;SDS011;11407;56.964;-2.212;2023-08-21T11:50:05;7.87;;;2.60;;
22480;SDS011;11407;56.964;-2.212;2023-08-21T11:52:31;7.10;;;2.00;;
22480;SDS011;11407;56.964;-2.212;2023-08-21T11:55:06;8.63;;;1.83;;
22480;SDS011;11407;56.964;-2.212;2023-08-21T11:57:32;6.53;;;1.90;;
22480;SDS011;11407;56.964;-2.212;2023-08-21T11:59:57;3.77;;;1.40;;
22480;SDS011;11407;56.964;-2.212;2023-08-21T12:02:23;4.07;;;1.40;;
22480;SDS011;11407;56.964;-2.212;2023-08-21T12:05:01;3.90;;;1.20;;
22480;SDS011;11407;56.964;-2.212;2023-08-21T12:07:26;7.57;;;1.60;;
22480;SDS011;11407;56.964;-2.212;2023-08-21T12:09:51;6.07;;;1.50;;
22480;SDS011;11407;56.964;-2.212;2023-08-21T12:12:16;5.20;;;1.37;;
22480;SDS011;11407;56.964;-2.212;2023-08-21T12:14:42;4.87;;;1.13;;
22480;SDS011;11407;56.964;-2.212;2023-08-21T12:17:07;3.73;;;1.20;;
22480;SDS011;11407;56.964;-2.212;2023-08-21T12:19:32;3.27;;;1.37;;
22480;SDS011;11407;56.964;-2.212;2023-08-21T12:21:58;5.03;;;1.33;;
22480;SDS011;11407;56.964;-2.212;2023-08-21T12:24:23;4.50;;;1.20;;
22480;SDS011;11407;56.964;-2.212;2023-08-21T12:26:49;3.07;;;1.10;;
22480;SDS011;11407;56.964;-2.212;2023-08-21T12:29:14;3.87;;;1.10;;
22480;SDS011;11407;56.964;-2.212;2023-08-21T12:31:39;2.93;;;1.47;;
22480;SDS011;11407;56.964;-2.212;2023-08-21T12:34:04;4.90;;;1.47;;
22480;SDS011;11407;56.964;-2.212;2023-08-21T12:36:30;5.83;;;1.53;;
22480;SDS011;11407;56.964;-2.212;2023-08-21T12:38:55;4.17;;;1.30;;
22480;SDS011;11407;56.964;-2.212;2023-08-21T12:41:20;6.80;;;1.63;;
22480;SDS011;11407;56.964;-2.212;2023-08-21T12:43:46;7.53;;;1.47;;
22480;SDS011;11407;56.964;-2.212;2023-08-21T12:46:11;3.33;;;1.40;;
22480;SDS011;11407;56.964;-2.212;2023-08-21T12:48:36;4.00;;;1.30;;
22480;SDS011;11407;56.964;-2.212;2023-08-21T12:51:02;4.23;;;1.33;;
22480;SDS011;11407;56.964;-2.212;2023-08-21T12:53:27;3.30;;;0.90;;
22480;SDS011;11407;56.964;-2.212;2023-08-21T12:55:52;3.33;;;1.17;;
22480;SDS011;11407;56.964;-2.212;2023-08-21T12:58:18;2.70;;;1.10;;
22480;SDS011;11407;56.964;-2.212;2023-08-21T13:00:44;2.10;;;1.00;;
22480;SDS011;11407;56.964;-2.212;2023-08-21T13:03:09;3.50;;;1.00;;
22480;SDS011;11407;56.964;-2.212;2023-08-21T13:05:34;2.77;;;1.10;;
22480;SDS011;11407;56.964;-2.212;2023-08-21T13:08:00;2.87;;;1.00;;
22480;SDS011;11407;56.964;-2.212;2023-08-21T13:10:25;2.13;;;0.90;;
22480;SDS011;11407;56.964;-2.212;2023-08-21T13:12:50;5.33;;;1.83;;
22480;SDS011;11407;56.964;-2.212;2023-08-21T13:15:16;1.00;;;0.90;;
22480;SDS011;11407;56.964;-2.212;2023-08-21T13:17:42;1.27;;;0.90;;
22480;SDS011;11407;56.964;-2.212;2023-08-21T13:20:08;1.57;;;1.00;;
22480;SDS011;11407;56.964;-2.212;2023-08-21T13:22:46;0.90;;;0.70;;
22480;SDS011;11407;56.964;-2.212;2023-08-21T13:25:13;1.77;;;1.07;;
22480;SDS011;11407;56.964;-2.212;2023-08-21T13:27:38;3.10;;;1.10;;
22480;SDS011;11407;56.964;-2.212;2023-08-21T13:30:04;2.07;;;1.10;;
22480;SDS011;11407;56.964;-2.212;2023-08-21T13:32:30;2.13;;;1.13;;
22480;SDS011;11407;56.964;-2.212;2023-08-21T13:34:55;2.60;;;1.20;;
22480;SDS011;11407;56.964;-2.212;2023-08-21T13:37:21;4.00;;;1.37;;
22480;SDS011;11407;56.964;-2.212;2023-08-21T13:39:47;2.43;;;1.00;;
22480;SDS011;11407;56.964;-2.212;2023-08-21T13:42:12;3.00;;;1.10;;
22480;SDS011;11407;56.964;-2.212;2023-08-21T13:44:37;2.33;;;1.03;;
22480;SDS011;11407;56.964;-2.212;2023-08-21T13:47:03;2.43;;;1.23;;
22480;SDS011;11407;56.964;-2.212;2023-08-21T13:49:28;2.00;;;1.10;;
22480;SDS011;11407;56.964;-2.212;2023-08-21T13:51:53;4.80;;;1.50;;
22480;SDS011;11407;56.964;-2.212;2023-08-21T13:54:19;3.23;;;1.40;;
22480;SDS011;11407;56.964;-2.212;2023-08-21T13:56:44;1.93;;;1.30;;
22480;SDS011;11407;56.964;-2.212;2023-08-21T13:59:09;4.40;;;1.53;;
22480;SDS011;11407;56.964;-2.212;2023-08-21T14:01:34;3.00;;;1.23;;
22480;SDS011;11407;56.964;-2.212;2023-08-21T14:04:00;2.53;;;1.50;;
22480;SDS011;11407;56.964;-2.212;2023-08-21T14:06:26;4.77;;;1.40;;
22480;SDS011;11407;56.964;-2.212;2023-08-21T14:08:52;4.70;;;1.30;;
22480;SDS011;11407;56.964;-2.212;2023-08-21T14:11:17;3.27;;;1.50;;
22480;SDS011;11407;56.964;-2.212;2023-08-21T14:13:42;3.10;;;1.37;;
22480;SDS011;11407;56.964;-2.212;2023-08-21T14:16:08;3.03;;;1.30;;
22480;SDS011;11407;56.964;-2.212;2023-08-21T14:18:33;2.23;;;1.10;;
22480;SDS011;11407;56.964;-2.212;2023-08-21T14:20:58;4.07;;;1.13;;
22480;SDS011;11407;56.964;-2.212;2023-08-21T14:23:23;3.93;;;1.40;;
22480;SDS011;11407;56.964;-2.212;2023-08-21T14:25:49;2.23;;;1.30;;
22480;SDS011;11407;56.964;-2.212;2023-08-21T14:28:14;2.77;;;1.00;;
22480;SDS011;11407;56.964;-2.212;2023-08-21T14:30:39;1.93;;;1.10;;
22480;SDS011;11407;56.964;-2.212;2023-08-21T14:33:05;2.57;;;1.33;;
22480;SDS011;11407;56.964;-2.212;2023-08-21T14:35:31;3.17;;;1.30;;